Time;durP1;ratioP1;P1;durP2;ratioP2;P2;SDS_P1;SDS_P2;PMS_P1;PMS_P2;Temp;Humidity;BMP_temperature;BMP_pressure;BME280_temperature;BME280_humidity;BME280_pressure;Samples;Min_cycle;Max_cycle;Signal;HPM_P1;HPM_P2
2023/12/11 00:02:24;;;;;;;115.32;32.40;;;;;;;-142.57;100.00;55963.72;4962225;28;20062;-79
2023/12/11 00:04:50;;;;;;;191.25;37.13;;;;;;;-142.57;100.00;55947.53;4972113;28;20089;-80
2023/12/11 00:07:15;;;;;;;183.05;38.08;;;;;;;-142.57;100.00;55989.97;4957873;28;20099;-81
2023/12/11 00:09:41;;;;;;;147.82;35.95;;;;;;;-142.57;100.00;56026.34;4965860;28;20375;-80
2023/12/11 00:12:07;;;;;;;84.45;34.75;;;;;;;-142.57;100.00;56028.38;4968187;28;20027;-80
2023/12/11 00:14:33;;;;;;;85.82;37.83;;;;;;;-142.57;100.00;56062.72;4965133;28;20038;-79
2023/12/11 00:16:58;;;;;;;78.75;37.42;;;;;;;-142.57;100.00;56115.25;4953939;28;20485;-80
2023/12/11 00:19:24;;;;;;;138.70;39.83;;;;;;;-142.57;100.00;56052.63;4965475;28;20094;-78
2023/12/11 00:21:49;;;;;;;81.38;37.22;;;;;;;-142.57;100.00;55996.03;4959176;28;20055;-78
2023/12/11 00:24:18;;;;;;;82.57;37.72;;;;;;;-142.57;100.00;56070.81;4955800;28;20035;-80
2023/12/11 00:26:43;;;;;;;82.07;36.13;;;;;;;-142.57;100.00;56014.22;4956097;28;20035;-79
2023/12/11 00:29:09;;;;;;;90.95;36.65;;;;;;;-142.57;100.00;56006.13;4956840;28;20031;-79
2023/12/11 00:31:35;;;;;;;83.03;38.50;;;;;;;-142.57;100.00;55996.03;4939409;28;20118;-79
2023/12/11 00:34:01;;;;;;;76.53;36.22;;;;;;;-142.57;100.00;55996.03;4966933;28;20110;-80
2023/12/11 00:36:27;;;;;;;85.63;39.38;;;;;;;-142.57;100.00;55983.91;4964056;28;20031;-79
2023/12/11 00:38:55;;;;;;;81.15;37.97;;;;;;;-142.57;100.00;55973.81;4944022;28;20138;-80
2023/12/11 00:41:21;;;;;;;83.25;37.88;;;;;;;-142.57;100.00;56000.06;4960158;28;20386;-81
2023/12/11 00:43:46;;;;;;;79.13;39.42;;;;;;;-142.57;100.00;56000.06;4951099;28;20101;-81
2023/12/11 00:46:14;;;;;;;76.32;37.55;;;;;;;-142.57;100.00;55971.78;4955933;28;20135;-81
2023/12/11 00:48:39;;;;;;;85.20;38.55;;;;;;;-142.57;100.00;56016.25;4935182;28;20042;-81
2023/12/11 00:51:05;;;;;;;70.00;35.70;;;;;;;-142.57;100.00;56058.69;4935552;28;20421;-79
2023/12/11 00:53:31;;;;;;;77.60;38.35;;;;;;;-142.57;100.00;55967.75;4935726;28;20043;-81
2023/12/11 00:55:56;;;;;;;76.25;37.97;;;;;;;-142.57;100.00;55987.94;4946857;28;20379;-80
2023/12/11 00:58:22;;;;;;;81.13;39.95;;;;;;;-142.57;100.00;55957.66;4968870;28;20106;-81
2023/12/11 01:00:47;;;;;;;85.35;42.60;;;;;;;-142.57;100.00;55963.72;4939387;28;20033;-82
2023/12/11 01:03:13;;;;;;;83.35;39.92;;;;;;;-142.57;100.00;56020.28;4945412;28;20034;-80
2023/12/11 01:05:39;;;;;;;82.53;40.00;;;;;;;-142.57;100.00;55975.84;4954541;28;20042;-81
2023/12/11 01:08:05;;;;;;;82.38;39.97;;;;;;;-142.57;100.00;55975.84;4947129;28;20039;-79
2023/12/11 01:10:30;;;;;;;91.55;41.58;;;;;;;-142.57;100.00;55987.94;4968573;28;20089;-80
2023/12/11 01:12:56;;;;;;;95.03;42.13;;;;;;;-142.57;100.00;55931.38;4953563;28;20496;-80
2023/12/11 01:15:21;;;;;;;84.95;41.05;;;;;;;-142.57;100.00;55941.47;4962238;28;20034;-79
2023/12/11 01:17:47;;;;;;;92.35;43.72;;;;;;;-142.57;100.00;55921.28;4959907;28;20063;-79
2023/12/11 01:20:12;;;;;;;108.47;45.33;;;;;;;-142.57;100.00;55975.84;4964399;28;20031;-80
2023/12/11 01:22:38;;;;;;;117.07;46.30;;;;;;;-142.57;100.00;56060.69;4973483;28;20109;-79
2023/12/11 01:25:04;;;;;;;125.25;46.25;;;;;;;-142.57;100.00;56139.50;4964566;28;20037;-80
2023/12/11 01:27:29;;;;;;;134.70;47.50;;;;;;;-142.57;100.00;56194.06;4961717;28;20019;-80
2023/12/11 01:29:55;;;;;;;125.75;46.65;;;;;;;-142.57;100.00;56278.94;4952946;28;20039;-80
2023/12/11 01:32:20;;;;;;;108.80;46.53;;;;;;;-142.57;100.00;56276.91;4954150;28;20039;-78
2023/12/11 01:34:46;;;;;;;100.28;44.08;;;;;;;-142.57;100.00;56339.56;4972288;28;20441;-79
2023/12/11 01:37:12;;;;;;;92.13;42.42;;;;;;;-142.57;100.00;56353.72;4968812;28;20030;-80
2023/12/11 01:39:38;;;;;;;95.28;43.70;;;;;;;-142.57;100.00;56268.84;4960873;28;20509;-80
2023/12/11 01:42:04;;;;;;;88.05;42.40;;;;;;;-142.57;100.00;56240.53;4960914;28;20114;-81
2023/12/11 01:44:30;;;;;;;98.20;42.13;;;;;;;-142.57;100.00;56141.53;4950621;28;20113;-83
2023/12/11 01:46:56;;;;;;;94.30;41.03;;;;;;;-142.57;100.00;56129.41;4969512;28;20058;-82
2023/12/11 01:49:21;;;;;;;82.53;41.25;;;;;;;-142.57;100.00;56068.78;4945998;28;20062;-79
2023/12/11 01:51:47;;;;;;;82.68;40.22;;;;;;;-142.57;100.00;56064.75;4944014;28;20035;-81
2023/12/11 01:54:14;;;;;;;91.22;40.90;;;;;;;-142.57;100.00;56068.78;4955196;28;20495;-80
2023/12/11 01:56:41;;;;;;;113.80;44.60;;;;;;;-142.57;100.00;56093.03;4945789;28;20134;-80
2023/12/11 01:59:06;;;;;;;113.55;43.80;;;;;;;-142.57;100.00;56004.13;4963332;28;20528;-82
2023/12/11 02:01:34;;;;;;;102.50;44.03;;;;;;;-142.57;100.00;56024.31;4964642;28;20070;-80
2023/12/11 02:04:00;;;;;;;106.30;44.78;;;;;;;-142.57;100.00;55987.94;4956334;28;20035;-80
2023/12/11 02:06:26;;;;;;;98.88;40.92;;;;;;;-142.57;100.00;55959.66;4965756;28;20062;-81
2023/12/11 02:08:52;;;;;;;99.03;39.90;;;;;;;-142.57;100.00;56012.19;4950417;28;20051;-80
2023/12/11 02:11:18;;;;;;;174.63;41.35;;;;;;;-142.57;100.00;55907.13;4966198;28;20042;-81
2023/12/11 02:13:43;;;;;;;136.95;40.58;;;;;;;-142.57;100.00;55963.72;4966489;28;20061;-79
2023/12/11 02:16:18;;;;;;;149.40;42.65;;;;;;;-142.57;100.00;55992.00;4967992;28;20481;-81
2023/12/11 02:18:44;;;;;;;195.48;40.70;;;;;;;-142.57;100.00;56000.06;4965633;28;20532;-82
2023/12/11 02:21:11;;;;;;;140.00;39.78;;;;;;;-142.57;100.00;55973.81;4967861;28;20102;-81
2023/12/11 02:24:01;;;;;;;95.95;36.78;;;;;;;-142.57;100.00;55955.63;4965395;28;20047;-80
2023/12/11 02:26:26;;;;;;;163.48;42.70;;;;;;;-142.57;100.00;55923.28;4962033;28;20031;-79
2023/12/11 02:28:52;;;;;;;85.53;40.05;;;;;;;-142.57;100.00;55945.53;4968319;28;20114;-83
2023/12/11 02:31:17;;;;;;;92.50;38.55;;;;;;;-142.57;100.00;55961.69;4967130;28;20038;-83
2023/12/11 02:33:43;;;;;;;94.35;37.97;;;;;;;-142.57;100.00;55963.72;4965169;28;20045;-81
2023/12/11 02:36:10;;;;;;;94.68;42.17;;;;;;;-142.57;100.00;56002.09;4966574;28;20406;-81
2023/12/11 02:38:35;;;;;;;96.38;42.72;;;;;;;-142.57;100.00;55996.03;4944036;28;20035;-80
2023/12/11 02:41:01;;;;;;;102.10;44.97;;;;;;;-142.57;100.00;56044.53;4938349;28;20039;-83
2023/12/11 02:43:27;;;;;;;119.55;48.13;;;;;;;-142.57;100.00;56036.44;4967702;28;20042;-81
2023/12/11 02:45:53;;;;;;;176.57;57.65;;;;;;;-142.57;100.00;56004.13;4952707;28;20502;-82
2023/12/11 02:48:19;;;;;;;182.07;56.55;;;;;;;-142.57;100.00;56000.06;4963304;28;20031;-82
2023/12/11 02:50:44;;;;;;;141.50;56.05;;;;;;;-142.57;100.00;56044.53;4945080;28;20447;-81
2023/12/11 02:53:10;;;;;;;135.10;50.55;;;;;;;-142.57;100.00;56072.81;4959540;28;20075;-83
2023/12/11 02:55:35;;;;;;;170.05;51.17;;;;;;;-142.57;100.00;55967.75;4963000;28;20550;-82
2023/12/11 02:58:03;;;;;;;188.10;48.67;;;;;;;-142.57;100.00;56028.38;4944961;28;20034;-84
2023/12/11 03:00:30;;;;;;;117.43;49.70;;;;;;;-142.57;100.00;56105.16;4948576;28;20494;-85
2023/12/11 03:02:57;;;;;;;172.50;52.17;;;;;;;-142.57;100.00;56058.69;4963221;28;20023;-82
2023/12/11 03:05:22;;;;;;;124.07;48.13;;;;;;;-142.57;100.00;56093.03;4967682;28;20031;-83
2023/12/11 03:07:49;;;;;;;104.97;45.17;;;;;;;-142.57;100.00;56157.69;4959340;28;20041;-84
2023/12/11 03:10:14;;;;;;;128.18;41.42;;;;;;;-142.57;100.00;56052.63;4963811;28;20463;-80
2023/12/11 03:12:40;;;;;;;101.90;38.38;;;;;;;-142.57;100.00;56066.75;4960012;28;20059;-81
2023/12/11 03:15:07;;;;;;;176.27;41.58;;;;;;;-142.57;100.00;55955.63;4967830;28;20026;-82
2023/12/11 03:17:32;;;;;;;106.70;38.65;;;;;;;-142.57;100.00;55998.06;4948468;28;20039;-81
2023/12/11 03:20:01;;;;;;;112.10;37.92;;;;;;;-142.57;100.00;56024.31;4961315;28;20030;-81
2023/12/11 03:22:28;;;;;;;167.45;38.88;;;;;;;-142.57;100.00;56012.19;4955008;28;20039;-80
2023/12/11 03:24:55;;;;;;;129.88;38.75;;;;;;;-142.57;100.00;55996.03;4964460;28;20069;-81
2023/12/11 03:27:21;;;;;;;113.75;37.45;;;;;;;-142.57;100.00;56012.19;4962327;28;20027;-82
2023/12/11 03:29:50;;;;;;;198.90;38.28;;;;;;;-142.57;100.00;55965.72;4940198;28;20047;-81
2023/12/11 03:32:15;;;;;;;217.20;38.85;;;;;;;-142.57;100.00;55959.66;4956934;28;20047;-83
2023/12/11 03:34:41;;;;;;;166.90;37.35;;;;;;;-142.57;100.00;56004.13;4957268;28;20054;-80
2023/12/11 03:37:09;;;;;;;101.55;35.55;;;;;;;-142.57;100.00;56004.13;4957781;28;20505;-80
2023/12/11 03:39:34;;;;;;;177.98;38.47;;;;;;;-142.57;100.00;55949.56;4962786;28;20035;-81
2023/12/11 03:42:00;;;;;;;288.20;39.75;;;;;;;-142.57;100.00;55937.44;4960585;28;20030;-80
2023/12/11 03:44:25;;;;;;;301.75;37.38;;;;;;;-142.57;100.00;56010.19;4963813;28;20035;-79
2023/12/11 03:46:51;;;;;;;275.33;38.53;;;;;;;-142.57;100.00;56046.56;4954061;28;20038;-79
2023/12/11 03:49:18;;;;;;;127.13;36.53;;;;;;;-142.57;100.00;56103.13;4964776;28;20082;-80
2023/12/11 03:51:48;;;;;;;141.13;36.55;;;;;;;-142.57;100.00;56117.28;4955457;28;20066;-80
2023/12/11 03:54:14;;;;;;;206.75;37.10;;;;;;;-142.57;100.00;56074.84;4961206;28;20485;-83
2023/12/11 03:56:39;;;;;;;174.18;38.55;;;;;;;-142.57;100.00;56048.56;4967422;28;20034;-79
2023/12/11 03:59:05;;;;;;;280.77;40.25;;;;;;;-142.57;100.00;56145.56;4974619;28;20031;-80
2023/12/11 04:01:31;;;;;;;236.57;40.80;;;;;;;-142.57;100.00;56101.13;4962599;28;20031;-81
2023/12/11 04:03:56;;;;;;;121.40;40.40;;;;;;;-142.57;100.00;56097.06;4960157;28;20475;-79
2023/12/11 04:06:22;;;;;;;116.57;41.67;;;;;;;-142.57;100.00;56119.31;4962129;28;20035;-82
2023/12/11 04:08:48;;;;;;;137.48;41.40;;;;;;;-142.57;100.00;56153.66;4958411;28;20061;-80
2023/12/11 04:11:13;;;;;;;96.55;43.17;;;;;;;-142.57;100.00;56157.69;4963348;28;20494;-82
2023/12/11 04:13:39;;;;;;;164.32;43.30;;;;;;;-142.57;100.00;56185.97;4967543;28;20110;-81
2023/12/11 04:16:05;;;;;;;112.78;43.42;;;;;;;-142.57;100.00;56064.75;4966094;28;20026;-81
2023/12/11 04:18:35;;;;;;;162.90;43.78;;;;;;;-142.57;100.00;56052.63;4958871;28;20388;-81
2023/12/11 04:21:01;;;;;;;227.90;43.08;;;;;;;-142.57;100.00;55969.78;4959706;28;20118;-82
2023/12/11 04:23:27;;;;;;;211.52;44.28;;;;;;;-142.57;100.00;56056.66;4966688;28;20565;-80
2023/12/11 04:25:57;;;;;;;171.20;41.53;;;;;;;-142.57;100.00;56052.63;4956402;28;20121;-82
2023/12/11 04:28:23;;;;;;;265.08;44.63;;;;;;;-142.57;100.00;56016.25;4969352;28;20034;-82
2023/12/11 04:30:49;;;;;;;223.45;43.17;;;;;;;-142.57;100.00;55977.84;4968611;28;20037;-80
2023/12/11 04:33:14;;;;;;;103.80;44.55;;;;;;;-142.57;100.00;56068.78;4962535;28;20109;-81
2023/12/11 04:35:40;;;;;;;158.57;43.22;;;;;;;-142.57;100.00;56048.56;4967050;28;20095;-82
2023/12/11 04:38:05;;;;;;;137.98;44.80;;;;;;;-142.57;100.00;56109.19;4953296;28;20122;-80
2023/12/11 04:40:31;;;;;;;144.90;46.13;;;;;;;-142.57;100.00;56099.09;4967776;28;20043;-82
2023/12/11 04:42:56;;;;;;;122.30;45.75;;;;;;;-142.57;100.00;56097.06;4965872;28;20031;-80
2023/12/11 04:45:22;;;;;;;128.43;47.13;;;;;;;-142.57;100.00;56064.75;4963144;28;20126;-81
2023/12/11 04:47:47;;;;;;;165.88;45.10;;;;;;;-142.57;100.00;56070.81;4960013;28;20027;-83
2023/12/11 04:50:13;;;;;;;144.18;43.35;;;;;;;-142.57;100.00;56070.81;4969016;28;20031;-81
2023/12/11 04:52:38;;;;;;;139.35;37.95;;;;;;;-142.57;100.00;56056.66;4965065;28;20065;-81
2023/12/11 04:55:04;;;;;;;84.72;33.75;;;;;;;-142.57;100.00;56026.34;4972104;28;20034;-80
2023/12/11 04:57:30;;;;;;;84.03;33.13;;;;;;;-142.57;100.00;56056.66;4965077;28;20041;-79
2023/12/11 04:59:58;;;;;;;104.97;34.05;;;;;;;-142.57;100.00;56022.31;4969740;28;20370;-80
2023/12/11 05:02:23;;;;;;;81.90;33.08;;;;;;;-142.57;100.00;56044.53;4967484;28;20046;-84
2023/12/11 05:04:49;;;;;;;78.35;30.77;;;;;;;-142.57;100.00;55965.72;4968690;28;20035;-81
2023/12/11 05:07:15;;;;;;;102.80;32.50;;;;;;;-142.57;100.00;55975.84;4956209;28;20030;-82
2023/12/11 05:09:40;;;;;;;72.68;30.83;;;;;;;-142.57;100.00;55967.75;4962841;28;20034;-80
2023/12/11 05:12:06;;;;;;;73.68;28.88;;;;;;;-142.57;100.00;55969.78;4943031;28;20058;-81
2023/12/11 05:14:32;;;;;;;64.35;28.52;;;;;;;-142.57;100.00;55927.34;4952683;28;20114;-79
2023/12/11 05:16:57;;;;;;;84.18;29.92;;;;;;;-142.57;100.00;55975.84;4963255;28;20174;-79
2023/12/11 05:19:23;;;;;;;64.68;29.73;;;;;;;-142.57;100.00;55919.25;4951762;28;20039;-79
2023/12/11 05:21:49;;;;;;;73.60;31.77;;;;;;;-142.57;100.00;55882.88;4959864;28;20387;-80
2023/12/11 05:24:15;;;;;;;64.22;28.75;;;;;;;-142.57;100.00;55897.03;4955880;28;20031;-82
2023/12/11 05:26:41;;;;;;;84.00;30.55;;;;;;;-142.57;100.00;55935.41;4953701;28;20038;-90
2023/12/11 05:29:07;;;;;;;70.53;29.73;;;;;;;-142.57;100.00;55880.84;4960414;28;20038;-86
2023/12/11 05:31:33;;;;;;;62.85;28.63;;;;;;;-142.57;100.00;55907.13;4960462;28;20031;-91
2023/12/11 05:33:59;;;;;;;63.05;28.42;;;;;;;-142.57;100.00;55901.06;4956012;28;20502;-81
2023/12/11 05:36:24;;;;;;;54.67;27.48;;;;;;;-142.57;100.00;55895.00;4974097;28;20034;-80
2023/12/11 05:38:50;;;;;;;45.90;26.55;;;;;;;-142.57;100.00;55862.69;4979281;28;20023;-82
2023/12/11 05:41:16;;;;;;;55.90;25.08;;;;;;;-142.57;100.00;55878.84;4962772;28;20110;-86
2023/12/11 05:43:42;;;;;;;66.93;23.60;;;;;;;-142.57;100.00;55824.28;4958426;28;20038;-85
2023/12/11 05:46:07;;;;;;;55.72;25.13;;;;;;;-142.57;100.00;55866.72;4964811;28;20031;-85
2023/12/11 05:48:33;;;;;;;46.65;25.80;;;;;;;-142.57;100.00;55907.13;4956287;28;20078;-84
2023/12/11 05:50:59;;;;;;;66.18;25.98;;;;;;;-142.57;100.00;55870.75;4956586;28;20054;-82
2023/12/11 05:53:25;;;;;;;94.93;26.52;;;;;;;-142.57;100.00;55878.84;4925002;28;20100;-82
2023/12/11 05:55:50;;;;;;;72.30;26.38;;;;;;;-142.57;100.00;55919.25;4957117;28;20039;-83
2023/12/11 05:58:16;;;;;;;65.47;26.55;;;;;;;-142.57;100.00;55892.97;4959790;28;20031;-81
2023/12/11 06:00:42;;;;;;;68.00;25.60;;;;;;;-142.57;100.00;55939.47;4916803;28;20038;-85
2023/12/11 06:03:07;;;;;;;49.92;26.65;;;;;;;-142.57;100.00;55933.41;4946435;28;20605;-81
2023/12/11 06:05:33;;;;;;;61.15;27.73;;;;;;;-142.57;100.00;55874.78;4966557;28;20070;-81
2023/12/11 06:07:59;;;;;;;69.63;26.48;;;;;;;-142.57;100.00;55923.28;4973136;28;20062;-82
2023/12/11 06:10:24;;;;;;;85.30;28.52;;;;;;;-142.57;100.00;55907.13;4963034;28;20498;-85
2023/12/11 06:12:50;;;;;;;94.72;27.38;;;;;;;-142.57;100.00;55919.25;4951792;28;20034;-87
2023/12/11 06:15:17;;;;;;;61.90;27.85;;;;;;;-142.57;100.00;55931.38;4964540;28;20046;-84
2023/12/11 06:17:46;;;;;;;97.60;28.95;;;;;;;-142.57;100.00;55943.50;4934555;28;20039;-84
2023/12/11 06:20:11;;;;;;;97.28;29.75;;;;;;;-142.57;100.00;55963.72;4947684;28;20039;-82
2023/12/11 06:22:37;;;;;;;72.45;27.98;;;;;;;-142.57;100.00;55971.78;4961942;28;20046;-80
2023/12/11 06:25:03;;;;;;;92.82;28.42;;;;;;;-142.57;100.00;55923.28;4958708;28;20031;-81
2023/12/11 06:27:28;;;;;;;69.55;27.15;;;;;;;-142.57;100.00;55959.66;4959298;28;20477;-80
2023/12/11 06:29:55;;;;;;;53.97;27.45;;;;;;;-142.57;100.00;56004.13;4968466;28;20556;-83
2023/12/11 06:32:21;;;;;;;45.88;27.13;;;;;;;-142.57;100.00;55987.94;4933158;28;20031;-84
2023/12/11 06:34:46;;;;;;;56.88;24.58;;;;;;;-142.57;100.00;55915.22;4951197;28;20031;-84
2023/12/11 06:37:15;;;;;;;43.97;23.20;;;;;;;-142.57;100.00;55927.34;4987735;28;20105;-81
2023/12/11 06:39:41;;;;;;;50.05;23.75;;;;;;;-142.57;100.00;55872.78;4991269;28;20097;-81
2023/12/11 06:42:08;;;;;;;80.72;22.88;;;;;;;-142.57;100.00;55856.63;4970960;28;20042;-82
2023/12/11 06:44:41;;;;;;;47.80;22.40;;;;;;;-142.57;100.00;55858.63;4971592;28;20086;-82
2023/12/11 06:47:06;;;;;;;69.00;24.77;;;;;;;-142.57;100.00;55840.44;4982283;28;20030;-83
2023/12/11 06:49:32;;;;;;;95.03;23.40;;;;;;;-142.57;100.00;55858.63;4978355;28;20383;-83
2023/12/11 06:51:58;;;;;;;69.65;22.65;;;;;;;-142.57;100.00;55874.78;4979297;28;20042;-81
2023/12/11 06:54:23;;;;;;;63.92;22.90;;;;;;;-142.57;100.00;55892.97;4967932;28;20118;-81
2023/12/11 06:56:49;;;;;;;146.85;23.00;;;;;;;-142.57;100.00;55842.47;4958327;28;20024;-80
2023/12/11 06:59:14;;;;;;;57.10;21.85;;;;;;;-142.57;100.00;55864.69;4938736;28;20039;-80
2023/12/11 07:01:40;;;;;;;88.03;22.45;;;;;;;-142.57;100.00;55886.91;4956048;28;20039;-83
2023/12/11 07:04:07;;;;;;;78.88;23.40;;;;;;;-142.57;100.00;55937.44;4956018;28;20043;-81
2023/12/11 07:06:32;;;;;;;54.78;23.35;;;;;;;-142.57;100.00;55921.28;4947063;28;20375;-82
2023/12/11 07:08:58;;;;;;;66.00;22.23;;;;;;;-142.57;100.00;55911.16;4955033;28;20028;-82
2023/12/11 07:11:24;;;;;;;41.10;23.15;;;;;;;-142.57;100.00;55905.09;4941516;28;20466;-82
2023/12/11 07:13:50;;;;;;;38.42;21.48;;;;;;;-142.57;100.00;55886.91;4954032;28;20045;-82
2023/12/11 07:16:15;;;;;;;51.13;23.02;;;;;;;-142.57;100.00;55858.63;4956529;28;20121;-80
2023/12/11 07:18:45;;;;;;;68.47;23.00;;;;;;;-142.57;100.00;55818.22;4947505;28;20036;-84
2023/12/11 07:21:12;;;;;;;58.45;22.15;;;;;;;-142.57;100.00;55897.03;4955689;28;20031;-84
2023/12/11 07:23:38;;;;;;;61.38;22.42;;;;;;;-142.57;100.00;55886.91;4955176;28;20523;-84
2023/12/11 07:26:09;;;;;;;42.53;22.60;;;;;;;-142.57;100.00;55828.31;4955306;28;20126;-82
2023/12/11 07:28:38;;;;;;;51.60;22.27;;;;;;;-142.57;100.00;55826.31;4955850;28;20494;-81
2023/12/11 07:31:05;;;;;;;55.55;21.80;;;;;;;-142.57;100.00;55830.34;4955520;28;20090;-82
2023/12/11 07:33:31;;;;;;;55.78;22.45;;;;;;;-142.57;100.00;55791.94;4955066;28;20027;-84
2023/12/11 07:35:58;;;;;;;60.38;22.63;;;;;;;-142.57;100.00;55806.09;4957720;28;20082;-81
2023/12/11 07:38:25;;;;;;;67.38;22.13;;;;;;;-142.57;100.00;55777.81;4958867;28;20410;-84
2023/12/11 07:40:53;;;;;;;55.70;22.38;;;;;;;-142.57;100.00;55777.81;4975950;28;20530;-83
2023/12/11 07:43:18;;;;;;;71.60;22.15;;;;;;;-142.57;100.00;55785.91;4978315;28;20410;-81
2023/12/11 07:45:44;;;;;;;62.20;22.10;;;;;;;-142.57;100.00;55781.84;4978133;28;20015;-85
2023/12/11 07:48:10;;;;;;;42.63;22.10;;;;;;;-142.57;100.00;55781.84;4975044;28;20031;-84
2023/12/11 07:50:35;;;;;;;42.33;22.02;;;;;;;-142.57;100.00;55781.84;4969193;28;20046;-79
2023/12/11 07:53:01;;;;;;;48.65;22.05;;;;;;;-142.57;100.00;55785.91;4965655;28;20414;-81
2023/12/11 07:55:28;;;;;;;48.80;22.30;;;;;;;-142.57;100.00;55800.03;4964383;28;20039;-82
2023/12/11 07:57:55;;;;;;;37.38;22.25;;;;;;;-142.57;100.00;55878.84;4949361;28;20047;-82
2023/12/11 08:00:21;;;;;;;61.80;21.00;;;;;;;-142.57;100.00;55826.31;4955008;28;20494;-82
2023/12/11 08:02:48;;;;;;;44.95;21.83;;;;;;;-142.57;100.00;55798.00;4970768;28;20041;-80
2023/12/11 08:05:14;;;;;;;53.65;21.80;;;;;;;-142.57;100.00;55838.44;4967660;28;20058;-81
2023/12/11 08:07:39;;;;;;;86.07;22.13;;;;;;;-142.57;100.00;55785.91;4976646;28;20093;-82
2023/12/11 08:10:05;;;;;;;57.00;23.88;;;;;;;-142.57;100.00;55895.00;4957552;28;20102;-80
2023/12/11 08:12:32;;;;;;;98.85;23.98;;;;;;;-142.57;100.00;55816.19;4975443;28;20038;-82
2023/12/11 08:15:00;;;;;;;51.40;24.25;;;;;;;-142.57;100.00;55897.03;4977978;28;20053;-80
2023/12/11 08:17:25;;;;;;;87.68;24.63;;;;;;;-142.57;100.00;55886.91;4988888;28;20057;-82
2023/12/11 08:19:51;;;;;;;77.85;26.33;;;;;;;-142.57;100.00;55919.25;4961410;28;20129;-81
2023/12/11 08:22:17;;;;;;;63.45;26.88;;;;;;;-142.57;100.00;55907.13;4979560;28;20074;-83
2023/12/11 08:24:43;;;;;;;51.38;24.92;;;;;;;-142.57;100.00;55923.28;4955496;28;20047;-81
2023/12/11 08:27:08;;;;;;;57.33;24.58;;;;;;;-142.57;100.00;55925.31;4966759;28;20101;-82
2023/12/11 08:29:35;;;;;;;57.95;24.58;;;;;;;-142.57;100.00;55874.78;4996210;28;20077;-83
2023/12/11 08:32:02;;;;;;;61.55;25.38;;;;;;;-142.57;100.00;55901.06;4996342;28;20369;-83
2023/12/11 08:34:28;;;;;;;56.25;25.75;;;;;;;-142.57;100.00;55947.53;4964212;28;20027;-81
2023/12/11 08:36:54;;;;;;;56.08;23.25;;;;;;;-142.57;100.00;55925.31;4976788;28;20113;-85
2023/12/11 08:39:19;;;;;;;45.00;23.35;;;;;;;-142.57;100.00;55886.91;4976771;28;20031;-79
2023/12/11 08:41:47;;;;;;;43.47;23.05;;;;;;;-142.57;100.00;55917.22;4970771;28;20043;-84
2023/12/11 08:44:13;;;;;;;36.85;22.33;;;;;;;-142.57;100.00;55874.78;4960443;28;20114;-82
2023/12/11 08:46:38;;;;;;;47.13;23.20;;;;;;;-142.57;100.00;55888.94;4949567;28;20118;-83
2023/12/11 08:49:04;;;;;;;57.78;22.42;;;;;;;-142.57;100.00;55852.56;4976049;28;20035;-82
2023/12/11 08:51:29;;;;;;;48.22;23.98;;;;;;;-142.57;100.00;55882.88;4958794;28;20394;-81
2023/12/11 08:53:55;;;;;;;74.45;22.92;;;;;;;-142.57;100.00;55890.97;4957229;28;20403;-80
2023/12/11 08:56:20;;;;;;;45.92;22.83;;;;;;;-142.57;100.00;55903.09;4956865;28;20478;-81
2023/12/11 08:58:46;;;;;;;39.60;22.52;;;;;;;-142.57;100.00;55882.88;4940090;28;20122;-82
2023/12/11 09:01:12;;;;;;;42.30;23.95;;;;;;;-142.57;100.00;55888.94;4958346;28;20467;-81
2023/12/11 09:03:39;;;;;;;39.45;23.67;;;;;;;-142.57;100.00;55911.16;4986746;28;20042;-81
2023/12/11 09:06:04;;;;;;;43.65;23.92;;;;;;;-142.57;100.00;55874.78;4996168;28;20336;-80
2023/12/11 09:08:30;;;;;;;41.78;24.73;;;;;;;-142.57;100.00;55884.91;4984565;28;20023;-81
2023/12/11 09:10:58;;;;;;;43.33;25.67;;;;;;;-142.57;100.00;55907.13;4973605;28;20038;-79
2023/12/11 09:13:24;;;;;;;42.67;24.98;;;;;;;-142.57;100.00;55864.69;4961001;28;20041;-80
2023/12/11 09:15:49;;;;;;;49.60;25.00;;;;;;;-142.57;100.00;55878.84;4972636;28;20390;-81
2023/12/11 09:18:15;;;;;;;46.83;27.13;;;;;;;-142.57;100.00;55866.72;4956633;28;20031;-83
2023/12/11 09:20:43;;;;;;;45.47;26.15;;;;;;;-142.57;100.00;55866.72;4973099;28;20042;-83
2023/12/11 09:23:16;;;;;;;40.85;23.90;;;;;;;-142.57;100.00;55895.00;4962649;28;20035;-83
2023/12/11 09:25:48;;;;;;;36.35;22.25;;;;;;;-142.57;100.00;55878.84;4961925;28;20035;-83
2023/12/11 09:28:14;;;;;;;39.35;23.15;;;;;;;-142.57;100.00;55899.03;4956222;28;20050;-81
2023/12/11 09:30:40;;;;;;;39.22;21.45;;;;;;;-142.57;100.00;55838.44;4952335;28;20050;-82
2023/12/11 09:33:05;;;;;;;34.90;22.05;;;;;;;-142.57;100.00;55858.63;4942053;28;20479;-83
2023/12/11 09:35:37;;;;;;;45.58;22.52;;;;;;;-142.57;100.00;55870.75;4967957;28;20034;-82
2023/12/11 09:38:02;;;;;;;31.83;18.92;;;;;;;-142.57;100.00;55870.75;4956337;28;20043;-81
2023/12/11 09:40:28;;;;;;;37.92;21.13;;;;;;;-142.57;100.00;55834.38;4956411;28;20031;-81
2023/12/11 09:42:53;;;;;;;41.58;21.33;;;;;;;-142.57;100.00;55802.06;4956312;28;20050;-81
2023/12/11 09:45:22;;;;;;;36.38;21.50;;;;;;;-142.57;100.00;55854.59;4956570;28;20161;-82
2023/12/11 09:47:55;;;;;;;44.13;22.90;;;;;;;-142.57;100.00;55858.63;4956139;28;20505;-82
2023/12/11 09:50:21;;;;;;;42.63;23.38;;;;;;;-142.57;100.00;55866.72;4956290;28;20075;-82
2023/12/11 09:52:54;;;;;;;59.42;25.15;;;;;;;-142.57;100.00;55868.72;4956045;28;20141;-83
2023/12/11 09:55:30;;;;;;;49.03;25.65;;;;;;;-142.57;100.00;55903.09;4955896;28;20042;-83
2023/12/11 09:57:56;;;;;;;48.45;27.40;;;;;;;-142.57;100.00;55886.91;4956004;28;20035;-82
2023/12/11 10:00:23;;;;;;;44.63;25.58;;;;;;;-142.57;100.00;55899.03;4957125;28;20019;-84
2023/12/11 10:02:51;;;;;;;46.20;25.63;;;;;;;-142.57;100.00;55925.31;4956787;28;20035;-82
2023/12/11 10:05:24;;;;;;;49.78;27.45;;;;;;;-142.57;100.00;55939.47;4939633;28;20035;-82
2023/12/11 10:07:49;;;;;;;63.47;26.65;;;;;;;-142.57;100.00;55945.53;4956453;28;20090;-82
2023/12/11 10:10:38;;;;;;;45.97;26.60;;;;;;;-142.57;100.00;55915.22;4956547;28;20039;-83
2023/12/11 10:13:05;;;;;;;60.90;28.30;;;;;;;-142.57;100.00;55909.16;4940819;28;20051;-82
2023/12/11 10:15:37;;;;;;;46.65;27.17;;;;;;;-142.57;100.00;55983.91;4957733;28;20034;-83
2023/12/11 10:18:11;;;;;;;60.67;29.58;;;;;;;-142.57;100.00;55929.34;4957260;28;20049;-83
2023/12/11 10:20:56;;;;;;;50.22;28.77;;;;;;;-142.57;100.00;55983.91;4942134;28;20054;-84
2023/12/11 10:23:22;;;;;;;54.20;28.58;;;;;;;-142.57;100.00;55969.78;4942836;29;20075;-84
2023/12/11 10:25:53;;;;;;;53.78;30.08;;;;;;;-142.57;100.00;56004.13;4961098;28;20471;-83
2023/12/11 10:28:21;;;;;;;60.33;31.77;;;;;;;-142.57;100.00;55981.88;4965569;28;20039;-83
2023/12/11 10:30:59;;;;;;;56.13;30.52;;;;;;;-142.57;100.00;56036.44;4972493;28;20066;-80
2023/12/11 10:33:26;;;;;;;51.58;28.90;;;;;;;-142.57;100.00;56014.22;4971951;28;20118;-82
2023/12/11 10:36:07;;;;;;;48.30;28.23;;;;;;;-142.57;100.00;56000.06;4967654;28;20039;-84
2023/12/11 10:38:34;;;;;;;46.40;27.35;;;;;;;-142.57;100.00;55937.44;4951157;29;20039;-83
2023/12/11 10:40:59;;;;;;;49.45;27.50;;;;;;;-142.57;100.00;55937.44;4967441;28;20446;-84
2023/12/11 10:43:25;;;;;;;50.00;26.98;;;;;;;-142.57;100.00;55953.59;4966029;28;20235;-83
2023/12/11 10:45:51;;;;;;;45.60;26.65;;;;;;;-142.57;100.00;56006.13;4963313;28;20106;-84
2023/12/11 10:48:16;;;;;;;48.05;27.70;;;;;;;-142.57;100.00;55975.84;4970353;28;20050;-82
2023/12/11 10:50:42;;;;;;;49.58;26.35;;;;;;;-142.57;100.00;55903.09;4971733;28;20054;-81